Time;durP1;ratioP1;P1;durP2;ratioP2;P2;SDS_P1;SDS_P2;PMS_P1;PMS_P2;Temp;Humidity;BMP_temperature;BMP_pressure;BME280_temperature;BME280_humidity;BME280_pressure;Samples;Min_cycle;Max_cycle;Signal;HPM_P1;HPM_P2
2023/12/26 00:01:24;;;;;;;;;;;9.40;99.90;;;;;;4949959;28;19922;-58
2023/12/26 00:03:49;;;;;;;;;;;9.50;99.90;;;;;;4939679;28;20024;-57
2023/12/26 00:06:19;;;;;;;;;;;9.50;99.90;;;;;;4952098;28;19921;-58
2023/12/26 00:08:44;;;;;;;;;;;9.50;99.90;;;;;;4951444;28;20049;-58
2023/12/26 00:11:10;;;;;;;;;;;9.50;99.90;;;;;;4950162;28;20032;-58
2023/12/26 00:13:36;;;;;;;;;;;9.50;99.90;;;;;;4947001;28;19960;-59
2023/12/26 00:16:02;;;;;;;;;;;9.50;99.90;;;;;;4947782;28;20991;-59
2023/12/26 00:18:27;;;;;;;;;;;9.50;99.90;;;;;;4949535;28;20000;-58
2023/12/26 00:20:53;;;;;;;;;;;9.50;99.90;;;;;;4947843;28;19930;-58
2023/12/26 00:23:20;;;;;;;;;;;9.50;99.90;;;;;;4951342;28;19917;-58
2023/12/26 00:25:46;;;;;;;;;;;9.60;99.90;;;;;;4935404;28;19926;-57
2023/12/26 00:28:13;;;;;;;;;;;9.60;99.90;;;;;;4956928;28;20009;-58
2023/12/26 00:30:39;;;;;;;;;;;9.60;99.90;;;;;;4953865;28;20369;-58
2023/12/26 00:33:05;;;;;;;;;;;9.60;99.90;;;;;;4939509;28;19928;-59
2023/12/26 00:35:31;;;;;;;;;;;9.60;99.90;;;;;;4956030;28;19926;-58
2023/12/26 00:37:58;;;;;;;;;;;9.60;99.90;;;;;;4952687;28;19999;-58
2023/12/26 00:40:24;;;;;;;;;;;9.60;99.90;;;;;;4950807;28;20563;-59
2023/12/26 00:42:49;;;;;;;;;;;9.60;99.90;;;;;;4946648;28;19926;-58
2023/12/26 00:45:15;;;;;;;;;;;9.60;99.90;;;;;;4949595;28;19926;-58
2023/12/26 00:47:41;;;;;;;;;;;9.60;99.90;;;;;;4947781;28;19921;-58
2023/12/26 00:50:11;;;;;;;;;;;9.60;99.90;;;;;;4947925;28;20398;-57
2023/12/26 00:52:38;;;;;;;;;;;9.60;99.90;;;;;;4933853;28;19922;-59
2023/12/26 00:55:03;;;;;;;;;;;9.60;99.90;;;;;;4933481;28;20326;-58
2023/12/26 00:57:29;;;;;;;;;;;9.60;99.90;;;;;;4952615;28;19922;-59
2023/12/26 00:59:54;;;;;;;;;;;9.60;99.90;;;;;;4953276;28;20489;-58
2023/12/26 01:02:22;;;;;;;;;;;9.60;99.90;;;;;;4943684;28;19926;-57
2023/12/26 01:04:48;;;;;;;;;;;9.60;99.90;;;;;;4946695;28;19930;-57
2023/12/26 01:07:13;;;;;;;;;;;9.60;99.90;;;;;;4945751;28;19929;-59
2023/12/26 01:09:39;;;;;;;;;;;9.60;99.90;;;;;;4952013;28;19926;-58
2023/12/26 01:12:05;;;;;;;;;;;9.60;99.90;;;;;;4927556;28;20289;-58
2023/12/26 01:14:30;;;;;;;;;;;9.60;99.90;;;;;;4947327;28;19941;-57
2023/12/26 01:16:56;;;;;;;;;;;9.60;99.90;;;;;;4938934;28;19937;-59
2023/12/26 01:19:22;;;;;;;;;;;9.60;99.90;;;;;;4946318;28;19926;-58
2023/12/26 01:21:47;;;;;;;;;;;9.60;99.90;;;;;;4946706;28;22443;-59
2023/12/26 01:24:13;;;;;;;;;;;9.60;99.90;;;;;;4946832;28;19918;-57
2023/12/26 01:26:38;;;;;;;;;;;9.60;99.90;;;;;;4944024;28;19972;-58
2023/12/26 01:29:04;;;;;;;;;;;9.60;99.90;;;;;;4898638;28;19933;-58
2023/12/26 01:31:33;;;;;;;;;;;9.60;99.90;;;;;;4941745;28;19922;-59
2023/12/26 01:33:59;;;;;;;;;;;9.60;99.90;;;;;;4939072;28;20294;-59
2023/12/26 01:36:24;;;;;;;;;;;9.60;99.90;;;;;;4941330;28;19926;-57
2023/12/26 01:38:50;;;;;;;;;;;9.60;99.90;;;;;;4941511;28;19922;-58
2023/12/26 01:41:16;;;;;;;;;;;9.60;99.90;;;;;;4940785;28;19986;-56
2023/12/26 01:43:41;;;;;;;;;;;9.60;99.90;;;;;;4939949;28;20048;-58
2023/12/26 01:46:08;;;;;;;;;;;9.60;99.90;;;;;;4922515;28;19925;-57
2023/12/26 01:48:34;;;;;;;;;;;9.60;99.90;;;;;;4940332;28;19922;-58
2023/12/26 01:51:02;;;;;;;;;;;9.60;99.90;;;;;;4940302;28;19997;-57
2023/12/26 01:53:28;;;;;;;;;;;9.60;99.90;;;;;;4938379;28;19937;-58
2023/12/26 01:55:54;;;;;;;;;;;9.50;99.90;;;;;;4938578;28;19933;-57
2023/12/26 01:58:19;;;;;;;;;;;9.50;99.90;;;;;;4941674;28;19925;-58
2023/12/26 02:00:45;;;;;;;;;;;9.50;99.90;;;;;;4919146;28;20374;-58
2023/12/26 02:03:10;;;;;;;;;;;9.50;99.90;;;;;;4905129;28;1142624;-58
2023/12/26 02:05:37;;;;;;;;;;;9.50;99.90;;;;;;4926069;28;20015;-58
2023/12/26 02:08:03;;;;;;;;;;;9.50;99.90;;;;;;4945416;28;19926;-58
2023/12/26 02:10:29;;;;;;;;;;;9.50;99.90;;;;;;4910564;28;19957;-57
2023/12/26 02:12:54;;;;;;;;;;;9.50;99.90;;;;;;4922246;28;19936;-58
2023/12/26 02:15:20;;;;;;;;;;;9.50;99.90;;;;;;4940484;28;20107;-58
2023/12/26 02:17:47;;;;;;;;;;;9.50;99.90;;;;;;4924800;28;20388;-58
2023/12/26 02:20:12;;;;;;;;;;;9.50;99.90;;;;;;4942100;28;20347;-58
2023/12/26 02:22:38;;;;;;;;;;;9.50;99.90;;;;;;4937054;28;20017;-58
2023/12/26 02:25:05;;;;;;;;;;;9.50;99.90;;;;;;4946543;28;19937;-58
2023/12/26 02:27:31;;;;;;;;;;;9.40;99.90;;;;;;4947550;28;19926;-58
2023/12/26 02:29:58;;;;;;;;;;;9.50;99.90;;;;;;4930290;28;19926;-58
2023/12/26 02:32:25;;;;;;;;;;;9.40;99.90;;;;;;4946294;28;19949;-59
2023/12/26 02:34:55;;;;;;;;;;;9.50;99.90;;;;;;4951770;28;19926;-57
2023/12/26 02:37:24;;;;;;;;;;;9.40;99.90;;;;;;4943623;28;19922;-59
2023/12/26 02:39:50;;;;;;;;;;;9.40;99.90;;;;;;4945626;28;20014;-56
2023/12/26 02:42:20;;;;;;;;;;;9.40;99.90;;;;;;4943689;28;19926;-58
2023/12/26 02:44:45;;;;;;;;;;;9.40;99.90;;;;;;4924547;28;20119;-58
2023/12/26 02:47:11;;;;;;;;;;;9.40;99.90;;;;;;4945794;28;20875;-59
2023/12/26 02:49:37;;;;;;;;;;;9.40;99.90;;;;;;4943072;28;20473;-57
2023/12/26 02:52:02;;;;;;;;;;;9.40;99.90;;;;;;4924122;28;19922;-57
2023/12/26 02:54:28;;;;;;;;;;;9.30;99.90;;;;;;4941135;28;20622;-58
2023/12/26 02:56:54;;;;;;;;;;;9.30;99.90;;;;;;4935885;28;19926;-56
2023/12/26 02:59:20;;;;;;;;;;;9.30;99.90;;;;;;4936178;28;21840;-58
2023/12/26 03:01:45;;;;;;;;;;;9.30;99.90;;;;;;4937165;28;27073;-57
2023/12/26 03:04:11;;;;;;;;;;;9.20;99.90;;;;;;4937782;28;19930;-57
2023/12/26 03:06:37;;;;;;;;;;;9.20;99.90;;;;;;4916376;28;20423;-57
2023/12/26 03:09:02;;;;;;;;;;;9.20;99.90;;;;;;4937139;28;19918;-59
2023/12/26 03:11:28;;;;;;;;;;;9.10;99.90;;;;;;4933539;28;19929;-58
2023/12/26 03:13:54;;;;;;;;;;;9.10;99.90;;;;;;4937781;28;20975;-58
2023/12/26 03:16:21;;;;;;;;;;;9.00;99.90;;;;;;4929909;28;19962;-57
2023/12/26 03:18:46;;;;;;;;;;;9.00;99.90;;;;;;4939292;28;19975;-57
2023/12/26 03:21:12;;;;;;;;;;;8.90;99.90;;;;;;4916580;28;19949;-58
2023/12/26 03:23:38;;;;;;;;;;;8.90;99.90;;;;;;4935151;28;19933;-57
2023/12/26 03:26:03;;;;;;;;;;;8.90;99.90;;;;;;4933269;28;20628;-58
2023/12/26 03:28:29;;;;;;;;;;;8.90;99.90;;;;;;4931091;28;20470;-59
2023/12/26 03:30:54;;;;;;;;;;;8.80;99.90;;;;;;4933862;28;19941;-58
2023/12/26 03:33:20;;;;;;;;;;;8.70;99.90;;;;;;4919649;28;19968;-58
2023/12/26 03:35:46;;;;;;;;;;;8.70;99.90;;;;;;4931490;28;19933;-57
2023/12/26 03:38:11;;;;;;;;;;;8.70;99.90;;;;;;4917332;28;19925;-57
2023/12/26 03:40:37;;;;;;;;;;;8.70;99.90;;;;;;4922366;28;19929;-58
2023/12/26 03:43:03;;;;;;;;;;;8.60;99.90;;;;;;4931440;28;19926;-58
2023/12/26 03:45:29;;;;;;;;;;;8.60;99.90;;;;;;4936210;28;19930;-58
2023/12/26 03:47:55;;;;;;;;;;;8.60;99.90;;;;;;4931488;28;19961;-57
2023/12/26 03:50:21;;;;;;;;;;;8.50;99.90;;;;;;4938783;28;19926;-58
2023/12/26 03:52:46;;;;;;;;;;;8.50;99.90;;;;;;4928878;28;19926;-57
2023/12/26 03:55:14;;;;;;;;;;;8.50;99.90;;;;;;4940505;28;19922;-57
2023/12/26 03:57:41;;;;;;;;;;;8.50;99.90;;;;;;4929201;28;19954;-56
2023/12/26 04:00:08;;;;;;;;;;;8.50;99.90;;;;;;4939553;28;20037;-58
2023/12/26 04:02:34;;;;;;;;;;;8.40;99.90;;;;;;4944352;28;19922;-57
2023/12/26 04:05:01;;;;;;;;;;;8.30;99.90;;;;;;4938703;28;19933;-58
2023/12/26 04:07:27;;;;;;;;;;;8.30;99.90;;;;;;4941234;28;20411;-58
2023/12/26 04:09:52;;;;;;;;;;;8.30;99.90;;;;;;4919020;28;19930;-58
2023/12/26 04:12:18;;;;;;;;;;;8.20;99.90;;;;;;4938223;28;20404;-58
2023/12/26 04:14:43;;;;;;;;;;;8.10;99.90;;;;;;4940761;28;19921;-58
2023/12/26 04:17:09;;;;;;;;;;;8.10;99.90;;;;;;4942751;28;19934;-58
2023/12/26 04:19:34;;;;;;;;;;;8.10;99.90;;;;;;4923325;28;20353;-58
2023/12/26 04:22:00;;;;;;;;;;;8.10;99.90;;;;;;4938778;28;19934;-58
2023/12/26 04:24:26;;;;;;;;;;;8.00;99.90;;;;;;4940045;28;19926;-57
2023/12/26 04:26:51;;;;;;;;;;;8.00;99.90;;;;;;4922669;28;20407;-58
2023/12/26 04:29:17;;;;;;;;;;;8.00;99.90;;;;;;4942007;28;19933;-58
2023/12/26 04:31:42;;;;;;;;;;;7.90;99.90;;;;;;4943363;28;20444;-58
2023/12/26 04:34:08;;;;;;;;;;;7.90;99.90;;;;;;4944728;28;20318;-57
2023/12/26 04:36:35;;;;;;;;;;;7.90;99.90;;;;;;4940824;28;19930;-57
2023/12/26 04:39:01;;;;;;;;;;;7.80;99.90;;;;;;4949227;28;19928;-58
2023/12/26 04:41:26;;;;;;;;;;;7.80;99.90;;;;;;4945849;28;19925;-58
2023/12/26 04:43:52;;;;;;;;;;;7.80;99.90;;;;;;4941998;28;20025;-58
2023/12/26 04:46:21;;;;;;;;;;;7.80;99.90;;;;;;4944662;28;19925;-58
2023/12/26 04:48:47;;;;;;;;;;;7.80;99.90;;;;;;4942768;28;19928;-58
2023/12/26 04:51:16;;;;;;;;;;;7.80;99.90;;;;;;4943141;28;20260;-58
2023/12/26 04:53:42;;;;;;;;;;;7.80;99.90;;;;;;4945052;28;19965;-59
2023/12/26 04:56:07;;;;;;;;;;;7.80;99.90;;;;;;4940954;28;20020;-58
2023/12/26 04:58:33;;;;;;;;;;;7.80;99.90;;;;;;4935497;28;19984;-57
2023/12/26 05:00:59;;;;;;;;;;;7.80;99.90;;;;;;4925886;28;19929;-57
2023/12/26 05:03:25;;;;;;;;;;;7.90;99.90;;;;;;4941041;28;19926;-58
2023/12/26 05:05:51;;;;;;;;;;;7.90;99.90;;;;;;4942624;28;19921;-58
2023/12/26 05:08:16;;;;;;;;;;;7.90;99.90;;;;;;4941466;28;20241;-58
2023/12/26 05:10:42;;;;;;;;;;;7.90;99.90;;;;;;4945100;28;19961;-57
2023/12/26 05:13:08;;;;;;;;;;;7.90;99.90;;;;;;4924520;28;20005;-58
2023/12/26 05:15:34;;;;;;;;;;;7.90;99.90;;;;;;4942280;28;19972;-58
2023/12/26 05:18:03;;;;;;;;;;;7.90;99.90;;;;;;4939475;28;20501;-58
2023/12/26 05:20:29;;;;;;;;;;;7.90;99.90;;;;;;4944970;28;20285;-58
2023/12/26 05:22:54;;;;;;;;;;;7.90;99.90;;;;;;4924262;28;19922;-58
2023/12/26 05:25:20;;;;;;;;;;;7.90;99.90;;;;;;4938725;28;20058;-59
2023/12/26 05:27:45;;;;;;;;;;;7.90;99.90;;;;;;4939500;28;19926;-58
2023/12/26 05:30:11;;;;;;;;;;;7.90;99.90;;;;;;4939790;28;19937;-58
2023/12/26 05:32:37;;;;;;;;;;;7.90;99.90;;;;;;4939326;28;19932;-58
2023/12/26 05:35:03;;;;;;;;;;;8.00;99.90;;;;;;4924358;28;19930;-56
2023/12/26 05:37:28;;;;;;;;;;;8.00;99.90;;;;;;4940909;28;19953;-58
2023/12/26 05:39:54;;;;;;;;;;;8.00;99.90;;;;;;4945652;28;19925;-58
2023/12/26 05:42:19;;;;;;;;;;;8.00;99.90;;;;;;4941876;28;19933;-58
2023/12/26 05:44:45;;;;;;;;;;;8.00;99.90;;;;;;4941290;28;19926;-58
2023/12/26 05:47:10;;;;;;;;;;;8.00;99.90;;;;;;4940463;28;19926;-57
2023/12/26 05:49:36;;;;;;;;;;;8.00;99.90;;;;;;4944616;28;19921;-56
2023/12/26 05:52:02;;;;;;;;;;;8.00;99.90;;;;;;4936819;28;20048;-58
2023/12/26 05:54:28;;;;;;;;;;;8.00;99.90;;;;;;4925801;28;19929;-58
2023/12/26 05:56:53;;;;;;;;;;;8.00;99.90;;;;;;4936909;28;20325;-55
2023/12/26 05:59:19;;;;;;;;;;;8.00;99.90;;;;;;4942514;28;20676;-57
2023/12/26 06:01:45;;;;;;;;;;;8.00;99.90;;;;;;4934312;28;19926;-57
2023/12/26 06:04:11;;;;;;;;;;;8.00;99.90;;;;;;4917217;28;20011;-58
2023/12/26 06:06:37;;;;;;;;;;;8.00;99.90;;;;;;4939719;28;20467;-56
2023/12/26 06:09:02;;;;;;;;;;;8.10;99.90;;;;;;4939183;28;20839;-58
2023/12/26 06:11:28;;;;;;;;;;;8.10;99.90;;;;;;4924314;28;19961;-57
2023/12/26 06:13:53;;;;;;;;;;;8.20;99.90;;;;;;4945084;28;20408;-57
2023/12/26 06:16:19;;;;;;;;;;;8.10;99.90;;;;;;4925194;28;20017;-57
2023/12/26 06:18:45;;;;;;;;;;;8.10;99.90;;;;;;4944367;28;19929;-57
2023/12/26 06:21:10;;;;;;;;;;;8.10;99.90;;;;;;4937986;28;20486;-58
2023/12/26 06:23:36;;;;;;;;;;;8.10;99.90;;;;;;4922870;28;20594;-58
2023/12/26 06:26:02;;;;;;;;;;;8.10;99.90;;;;;;4939853;28;19926;-57
2023/12/26 06:28:28;;;;;;;;;;;8.00;99.90;;;;;;4940376;28;19926;-58
2023/12/26 06:30:53;;;;;;;;;;;8.00;99.90;;;;;;4939587;28;19925;-57
2023/12/26 06:33:19;;;;;;;;;;;8.00;99.90;;;;;;4942329;28;20064;-58
2023/12/26 06:35:45;;;;;;;;;;;7.90;99.90;;;;;;4934614;28;19927;-58
2023/12/26 06:38:13;;;;;;;;;;;8.00;99.90;;;;;;4925306;28;19926;-56
2023/12/26 06:40:42;;;;;;;;;;;7.90;99.90;;;;;;4939276;28;19922;-59
2023/12/26 06:43:09;;;;;;;;;;;7.90;99.90;;;;;;4941424;28;21324;-58
2023/12/26 06:45:34;;;;;;;;;;;7.90;99.90;;;;;;4939591;28;19922;-58
2023/12/26 06:48:00;;;;;;;;;;;7.90;99.90;;;;;;4921723;28;20184;-57
2023/12/26 06:50:25;;;;;;;;;;;7.80;99.90;;;;;;4941165;28;19976;-58
2023/12/26 06:52:51;;;;;;;;;;;7.80;99.90;;;;;;4936517;28;19982;-57
2023/12/26 06:55:16;;;;;;;;;;;7.80;99.90;;;;;;4938415;28;19922;-58
2023/12/26 06:57:42;;;;;;;;;;;7.80;99.90;;;;;;4934899;28;19985;-58
2023/12/26 07:00:08;;;;;;;;;;;7.80;99.90;;;;;;4916633;28;19972;-57
2023/12/26 07:02:34;;;;;;;;;;;7.80;99.90;;;;;;4939039;28;20378;-58
2023/12/26 07:05:00;;;;;;;;;;;7.80;99.90;;;;;;4921175;28;19930;-58
2023/12/26 07:07:25;;;;;;;;;;;7.80;99.90;;;;;;4897219;28;20761;-57
2023/12/26 07:09:51;;;;;;;;;;;7.80;99.90;;;;;;4927451;28;19992;-58
2023/12/26 07:12:18;;;;;;;;;;;7.80;99.90;;;;;;4935285;28;20699;-58
2023/12/26 07:14:43;;;;;;;;;;;7.80;99.90;;;;;;4934894;28;19922;-58
2023/12/26 07:17:09;;;;;;;;;;;7.80;99.90;;;;;;4937431;28;19992;-57
2023/12/26 07:19:35;;;;;;;;;;;7.80;99.90;;;;;;4940102;28;20012;-57
2023/12/26 07:22:00;;;;;;;;;;;7.80;99.90;;;;;;4938729;28;19926;-59
2023/12/26 07:24:26;;;;;;;;;;;7.80;99.90;;;;;;4938547;28;20048;-57
2023/12/26 07:26:51;;;;;;;;;;;7.80;99.90;;;;;;4941257;28;19930;-58
2023/12/26 07:29:17;;;;;;;;;;;7.80;99.90;;;;;;4938558;28;20010;-57
2023/12/26 07:31:42;;;;;;;;;;;7.80;99.90;;;;;;4923383;28;19938;-58
2023/12/26 07:34:09;;;;;;;;;;;7.80;99.90;;;;;;4938351;28;19926;-57
2023/12/26 07:36:35;;;;;;;;;;;7.80;99.90;;;;;;4939427;28;19930;-58
2023/12/26 07:39:00;;;;;;;;;;;7.80;99.90;;;;;;4921271;28;19981;-57
2023/12/26 07:41:26;;;;;;;;;;;7.80;99.90;;;;;;4937012;28;20950;-58
2023/12/26 07:43:54;;;;;;;;;;;7.80;99.90;;;;;;4937530;28;19937;-56
2023/12/26 07:46:20;;;;;;;;;;;7.80;99.90;;;;;;4935128;28;20354;-58
2023/12/26 07:48:46;;;;;;;;;;;7.80;99.90;;;;;;4936126;28;19926;-58
2023/12/26 07:51:12;;;;;;;;;;;7.80;99.90;;;;;;4941878;28;20455;-57
2023/12/26 07:53:38;;;;;;;;;;;7.80;99.90;;;;;;4940482;28;19948;-58
2023/12/26 07:56:04;;;;;;;;;;;7.90;99.90;;;;;;4943297;28;19925;-56
2023/12/26 07:58:30;;;;;;;;;;;7.90;99.90;;;;;;4937445;28;19945;-57
2023/12/26 08:00:56;;;;;;;;;;;7.90;99.90;;;;;;4939604;28;19980;-58
2023/12/26 08:03:21;;;;;;;;;;;7.90;99.90;;;;;;4932882;28;20040;-58
2023/12/26 08:05:48;;;;;;;;;;;7.80;99.90;;;;;;4926289;28;19926;-56
2023/12/26 08:08:13;;;;;;;;;;;7.80;99.90;;;;;;4907634;28;19922;-58
2023/12/26 08:10:42;;;;;;;;;;;7.80;99.90;;;;;;4926360;28;19934;-58
2023/12/26 08:13:07;;;;;;;;;;;7.80;99.90;;;;;;4912176;28;19934;-58
2023/12/26 08:15:33;;;;;;;;;;;7.80;99.90;;;;;;4904597;28;20049;-58
2023/12/26 08:17:58;;;;;;;;;;;7.80;99.90;;;;;;4926168;28;19925;-58
2023/12/26 08:20:24;;;;;;;;;;;7.80;99.90;;;;;;4900435;28;19970;-56
2023/12/26 08:22:50;;;;;;;;;;;7.70;99.90;;;;;;4915456;28;20091;-57
2023/12/26 08:25:15;;;;;;;;;;;7.80;99.90;;;;;;4921348;28;19933;-57
2023/12/26 08:27:41;;;;;;;;;;;7.80;99.90;;;;;;4906974;28;19933;-58
2023/12/26 08:30:07;;;;;;;;;;;7.70;99.90;;;;;;4909010;28;19990;-57
2023/12/26 08:32:33;;;;;;;;;;;7.70;99.90;;;;;;4911359;28;19933;-57
2023/12/26 08:34:59;;;;;;;;;;;7.70;99.90;;;;;;4925390;28;20136;-57
2023/12/26 08:37:25;;;;;;;;;;;7.70;99.90;;;;;;4919334;28;20309;-58
2023/12/26 08:39:51;;;;;;;;;;;7.70;99.90;;;;;;4923728;28;19922;-58
2023/12/26 08:42:16;;;;;;;;;;;7.70;99.90;;;;;;4924111;28;19918;-57
2023/12/26 08:44:42;;;;;;;;;;;7.70;99.90;;;;;;4901751;28;20847;-58
2023/12/26 08:47:07;;;;;;;;;;;7.80;99.90;;;;;;4905395;28;20025;-57
2023/12/26 08:49:33;;;;;;;;;;;7.80;99.90;;;;;;4917547;28;20058;-57
2023/12/26 08:52:00;;;;;;;;;;;7.80;99.90;;;;;;4924446;28;20323;-56
2023/12/26 08:54:26;;;;;;;;;;;7.80;99.90;;;;;;4923335;28;19927;-58
2023/12/26 08:56:51;;;;;;;;;;;7.80;99.90;;;;;;4926332;28;19926;-58
2023/12/26 08:59:18;;;;;;;;;;;7.90;99.90;;;;;;4922802;28;19926;-58
2023/12/26 09:01:44;;;;;;;;;;;7.90;99.90;;;;;;4924623;28;19981;-58
2023/12/26 09:04:10;;;;;;;;;;;7.90;99.90;;;;;;4935575;28;20388;-57
2023/12/26 09:06:35;;;;;;;;;;;7.90;99.90;;;;;;4946497;28;20946;-55
2023/12/26 09:09:01;;;;;;;;;;;7.90;99.90;;;;;;4950377;28;20257;-58
2023/12/26 09:11:28;;;;;;;;;;;7.90;99.90;;;;;;4953814;28;19929;-57
2023/12/26 09:13:54;;;;;;;;;;;7.90;99.90;;;;;;4951893;28;19922;-57
2023/12/26 09:16:20;;;;;;;;;;;7.90;99.90;;;;;;4934126;28;19925;-58
2023/12/26 09:18:45;;;;;;;;;;;8.00;99.90;;;;;;4946671;28;19933;-56
2023/12/26 09:21:11;;;;;;;;;;;8.00;99.90;;;;;;4956543;28;20300;-57
2023/12/26 09:23:37;;;;;;;;;;;8.00;99.90;;;;;;4953369;28;19946;-58
2023/12/26 09:26:03;;;;;;;;;;;8.10;99.90;;;;;;4929497;28;19926;-58
2023/12/26 09:28:29;;;;;;;;;;;8.10;99.90;;;;;;4949324;28;19925;-57
2023/12/26 09:30:55;;;;;;;;;;;8.10;99.90;;;;;;4948611;28;19951;-57
2023/12/26 09:33:20;;;;;;;;;;;8.10;99.90;;;;;;4944471;28;20180;-58
2023/12/26 09:35:46;;;;;;;;;;;8.20;99.90;;;;;;4950596;28;19921;-58
2023/12/26 09:38:12;;;;;;;;;;;8.20;99.90;;;;;;4942361;28;19973;-58
2023/12/26 09:40:38;;;;;;;;;;;8.20;99.90;;;;;;4936552;28;20351;-57
2023/12/26 09:43:03;;;;;;;;;;;8.20;99.90;;;;;;4949684;28;19922;-58
2023/12/26 09:45:30;;;;;;;;;;;8.20;99.90;;;;;;4948298;28;19929;-58
2023/12/26 09:47:57;;;;;;;;;;;8.20;99.90;;;;;;4946781;28;19984;-58
2023/12/26 09:50:22;;;;;;;;;;;8.20;99.90;;;;;;4948730;28;19926;-57
2023/12/26 09:52:53;;;;;;;;;;;8.20;99.90;;;;;;4950917;28;19968;-57
2023/12/26 09:55:21;;;;;;;;;;;8.30;99.90;;;;;;4949498;28;19921;-58
2023/12/26 09:57:47;;;;;;;;;;;8.30;99.90;;;;;;4929893;28;20384;-58
2023/12/26 10:00:13;;;;;;;;;;;8.30;99.90;;;;;;4949956;28;19922;-58
2023/12/26 10:02:40;;;;;;;;;;;8.30;99.90;;;;;;4948034;28;19919;-58
2023/12/26 10:05:06;;;;;;;;;;;8.30;99.90;;;;;;4949482;28;20021;-57
2023/12/26 10:07:31;;;;;;;;;;;8.30;99.90;;;;;;4941838;28;19977;-58
2023/12/26 10:09:57;;;;;;;;;;;8.30;99.90;;;;;;4947102;28;19944;-58
2023/12/26 10:12:34;;;;;;;;;;;8.30;99.90;;;;;;4938212;28;19934;-57
2023/12/26 10:15:02;;;;;;;;;;;8.30;99.90;;;;;;4942765;28;20392;-56
2023/12/26 10:17:28;;;;;;;;;;;8.30;99.90;;;;;;4937874;28;19926;-58
2023/12/26 10:20:00;;;;;;;;;;;8.30;99.90;;;;;;4941361;28;19930;-58
2023/12/26 10:22:26;;;;;;;;;;;8.30;99.90;;;;;;4948588;28;19984;-58
2023/12/26 10:24:51;;;;;;;;;;;8.40;99.90;;;;;;4909458;28;20023;-58
2023/12/26 10:27:17;;;;;;;;;;;8.40;99.90;;;;;;4925061;28;19926;-57
2023/12/26 10:29:50;;;;;;;;;;;8.40;99.90;;;;;;4923332;28;19918;-58
2023/12/26 10:32:16;;;;;;;;;;;8.40;99.90;;;;;;4939925;28;19933;-57
2023/12/26 10:34:41;;;;;;;;;;;8.40;99.90;;;;;;4945689;28;19922;-57
2023/12/26 10:37:08;;;;;;;;;;;8.40;99.90;;;;;;4930962;28;19973;-58
2023/12/26 10:39:34;;;;;;;;;;;8.50;99.90;;;;;;4940740;28;20352;-57
2023/12/26 10:42:01;;;;;;;;;;;8.50;99.90;;;;;;4917290;28;20480;-57
2023/12/26 10:44:51;;;;;;;;;;;8.50;99.90;;;;;;4932053;28;20285;-58
2023/12/26 10:47:17;;;;;;;;;;;8.60;99.90;;;;;;4942889;28;19919;-57
2023/12/26 10:49:43;;;;;;;;;;;8.60;99.90;;;;;;4947800;28;19921;-58
2023/12/26 10:52:11;;;;;;;;;;;8.60;99.90;;;;;;4945193;28;20005;-58
2023/12/26 10:54:38;;;;;;;;;;;8.60;99.90;;;;;;4933549;28;19930;-57
2023/12/26 10:57:05;;;;;;;;;;;8.60;99.90;;;;;;4948963;28;20364;-56
2023/12/26 13:53:34;;;;;;;;;;;8.20;99.90;;;;;;4924173;28;19937;-57
2023/12/26 13:55:59;;;;;;;;;;;8.20;99.90;;;;;;4940595;28;20048;-58
2023/12/26 13:58:25;;;;;;;;;;;8.20;99.90;;;;;;4916392;28;20628;-57
2023/12/26 14:00:51;;;;;;;;;;;8.10;99.90;;;;;;4941059;28;20483;-57
2023/12/26 14:03:35;;;;;;;;;;;8.00;99.90;;;;;;4938474;28;19922;-57
2023/12/26 14:06:19;;;;;;;;;;;8.00;99.90;;;;;;4931938;28;19973;-57
2023/12/26 14:09:04;;;;;;;;;;;7.90;99.90;;;;;;4925724;28;19992;-57
2023/12/26 14:11:48;;;;;;;;;;;7.90;99.90;;;;;;4939980;28;19945;-58
2023/12/26 14:14:33;;;;;;;;;;;7.80;99.90;;;;;;4941253;28;19961;-57
2023/12/26 14:17:17;;;;;;;;;;;7.80;99.90;;;;;;4940562;28;20083;-58
2023/12/26 14:20:02;;;;;;;;;;;7.70;99.90;;;;;;4942536;28;19948;-58
2023/12/26 14:22:46;;;;;;;;;;;7.60;99.90;;;;;;4940164;28;20596;-58
2023/12/26 14:25:31;;;;;;;;;;;7.60;99.90;;;;;;4944324;28;19922;-58
2023/12/26 14:28:15;;;;;;;;;;;7.50;99.90;;;;;;4930977;28;20025;-58
2023/12/26 14:30:59;;;;;;;;;;;7.50;99.90;;;;;;4945933;28;19922;-57
2023/12/26 14:33:43;;;;;;;;;;;7.50;99.90;;;;;;4947054;28;19996;-57
2023/12/26 14:36:28;;;;;;;;;;;7.50;99.90;;;;;;4943915;28;19922;-58
2023/12/26 14:39:12;;;;;;;;;;;7.50;99.90;;;;;;4943371;28;19922;-58
2023/12/26 14:41:56;;;;;;;;;;;7.40;99.90;;;;;;4945181;28;20028;-57
2023/12/26 14:44:41;;;;;;;;;;;7.40;99.90;;;;;;4945631;28;20300;-57
2023/12/26 14:47:25;;;;;;;;;;;7.40;99.90;;;;;;4926889;28;20040;-58
2023/12/26 14:50:09;;;;;;;;;;;7.40;99.90;;;;;;4947298;28;20111;-56
2023/12/26 14:52:53;;;;;;;;;;;7.30;99.90;;;;;;4946855;28;19929;-57
2023/12/26 14:55:38;;;;;;;;;;;7.20;99.90;;;;;;4942757;28;19926;-57
2023/12/26 14:58:22;;;;;;;;;;;7.20;99.90;;;;;;4944224;28;20413;-58
2023/12/26 15:01:06;;;;;;;;;;;7.10;99.90;;;;;;4945321;28;19933;-56
2023/12/26 15:03:32;;;;;;;;;;;7.10;99.90;;;;;;4946949;28;20453;-56
2023/12/26 15:05:57;;;;;;;;;;;7.10;99.90;;;;;;4950064;28;19922;-58
2023/12/26 15:08:23;;;;;;;;;;;7.00;99.90;;;;;;4919184;28;19925;-57
2023/12/26 15:10:49;;;;;;;;;;;7.00;99.90;;;;;;4950887;28;19926;-56
2023/12/26 15:13:15;;;;;;;;;;;6.90;99.90;;;;;;4950920;28;19926;-58
2023/12/26 15:15:40;;;;;;;;;;;6.90;99.90;;;;;;4950199;28;19933;-56
2023/12/26 15:18:06;;;;;;;;;;;6.90;99.90;;;;;;4947758;28;19922;-57
2023/12/26 15:20:32;;;;;;;;;;;6.80;99.90;;;;;;4933790;28;20009;-56
2023/12/26 15:22:58;;;;;;;;;;;6.80;99.90;;;;;;4950833;28;19928;-57
2023/12/26 15:25:24;;;;;;;;;;;6.80;99.90;;;;;;4946584;28;19926;-57
2023/12/26 15:27:49;;;;;;;;;;;6.80;99.90;;;;;;4951808;28;19932;-56
2023/12/26 15:30:15;;;;;;;;;;;6.80;99.90;;;;;;4948572;28;20645;-57
2023/12/26 15:32:41;;;;;;;;;;;6.70;99.90;;;;;;4947951;28;19926;-56
2023/12/26 15:35:07;;;;;;;;;;;6.80;99.90;;;;;;4946769;28;19923;-57
2023/12/26 15:37:33;;;;;;;;;;;6.80;99.90;;;;;;4948401;28;19926;-56
2023/12/26 15:39:59;;;;;;;;;;;6.80;99.90;;;;;;4949156;28;19933;-57
2023/12/26 15:42:24;;;;;;;;;;;6.80;99.90;;;;;;4949294;28;20452;-57
2023/12/26 15:44:50;;;;;;;;;;;6.70;99.90;;;;;;4949321;28;20370;-58
2023/12/26 15:47:15;;;;;;;;;;;6.70;99.90;;;;;;4959098;28;20440;-56
2023/12/26 15:49:41;;;;;;;;;;;6.60;99.90;;;;;;4955959;28;21400;-58
2023/12/26 15:52:09;;;;;;;;;;;6.60;99.90;;;;;;4959330;28;19929;-58
2023/12/26 15:54:35;;;;;;;;;;;6.60;99.90;;;;;;4954976;28;20017;-57
2023/12/26 15:57:00;;;;;;;;;;;6.50;99.90;;;;;;4951304;28;19952;-57
2023/12/26 15:59:26;;;;;;;;;;;6.50;99.90;;;;;;4957729;28;19969;-56
2023/12/26 16:01:52;;;;;;;;;;;6.40;99.90;;;;;;4953405;28;20060;-58
2023/12/26 16:04:18;;;;;;;;;;;6.40;99.90;;;;;;4956962;28;20385;-57
2023/12/26 16:06:43;;;;;;;;;;;6.30;99.90;;;;;;4958293;28;19961;-56
2023/12/26 16:09:09;;;;;;;;;;;6.30;99.90;;;;;;4954185;28;20270;-57
2023/12/26 16:11:35;;;;;;;;;;;6.30;99.90;;;;;;4926945;28;19933;-56
2023/12/26 16:14:02;;;;;;;;;;;6.20;99.90;;;;;;4932152;28;19922;-57
2023/12/26 16:16:28;;;;;;;;;;;6.20;99.90;;;;;;4953142;28;20329;-57
2023/12/26 16:18:53;;;;;;;;;;;6.20;99.90;;;;;;4954012;28;19922;-58
2023/12/26 16:21:20;;;;;;;;;;;6.10;99.90;;;;;;4952009;28;19922;-58
2023/12/26 16:23:46;;;;;;;;;;;6.10;99.90;;;;;;4953481;28;19961;-58
2023/12/26 16:26:12;;;;;;;;;;;6.00;99.90;;;;;;4951486;28;20008;-57
2023/12/26 16:28:37;;;;;;;;;;;6.00;99.90;;;;;;4950354;28;20476;-56
2023/12/26 16:31:04;;;;;;;;;;;5.90;99.90;;;;;;4953383;28;20511;-57
2023/12/26 16:33:30;;;;;;;;;;;5.90;99.90;;;;;;4937882;28;19922;-57
2023/12/26 16:35:55;;;;;;;;;;;5.90;99.90;;;;;;4952800;28;19948;-58
2023/12/26 16:38:23;;;;;;;;;;;5.80;99.90;;;;;;4951413;28;19925;-58
2023/12/26 16:40:48;;;;;;;;;;;5.80;99.90;;;;;;4951827;28;20040;-57
2023/12/26 16:43:14;;;;;;;;;;;5.80;99.90;;;;;;4952236;28;19930;-57
2023/12/26 16:45:39;;;;;;;;;;;5.80;99.90;;;;;;4949389;28;19918;-57
2023/12/26 16:48:07;;;;;;;;;;;5.80;99.90;;;;;;4950583;28;19926;-56
2023/12/26 16:50:33;;;;;;;;;;;5.70;99.90;;;;;;4932944;28;19922;-58
2023/12/26 16:52:59;;;;;;;;;;;5.70;99.90;;;;;;4949307;28;20373;-57
2023/12/26 16:55:25;;;;;;;;;;;5.70;99.90;;;;;;4950789;28;20162;-57
2023/12/26 16:57:50;;;;;;;;;;;5.60;99.90;;;;;;4907869;28;20430;-58
2023/12/26 17:00:16;;;;;;;;;;;5.60;99.90;;;;;;4940689;28;19981;-56
2023/12/26 17:02:42;;;;;;;;;;;5.60;99.90;;;;;;4933840;28;19926;-58
2023/12/26 17:05:07;;;;;;;;;;;5.60;99.90;;;;;;4941061;28;19993;-57
2023/12/26 17:07:33;;;;;;;;;;;5.60;99.90;;;;;;4925570;28;20178;-57
2023/12/26 17:09:59;;;;;;;;;;;5.60;99.90;;;;;;4947838;28;20241;-56
2023/12/26 17:12:25;;;;;;;;;;;5.60;99.90;;;;;;4940266;28;19953;-57
2023/12/26 17:14:50;;;;;;;;;;;5.50;99.90;;;;;;4939973;28;20282;-58
2023/12/26 17:17:16;;;;;;;;;;;5.50;99.90;;;;;;4943756;28;19926;-57
2023/12/26 17:19:42;;;;;;;;;;;5.50;99.90;;;;;;4946616;28;19923;-57
2023/12/26 17:22:10;;;;;;;;;;;5.50;99.90;;;;;;4945891;28;19929;-58
2023/12/26 17:24:36;;;;;;;;;;;5.50;99.90;;;;;;4944895;28;20447;-58